22 mai 2022

Temps Code Temps Temp. Vue Des nuages Vent METAR/SPECI
08:55
V
16 °C 10 km+ - 150°   150° 6 kt METAR EHRD 220655Z AUTO 15006KT 9999 NSC 16/10 Q1017 NOSIG
08:25
V
15 °C 10 km+ - 160°   160° 6 kt METAR EHRD 220625Z AUTO 16006KT 9999 NSC 15/10 Q1017 NOSIG
07:55
V
13 °C 10 km+ - 150°   150° 4 kt METAR EHRD 220555Z AUTO 15004KT 100V180 9999 NSC 13/11 Q1017 NOSIG
07:25
V
11 °C 10 km+ - Var   Var 1 kt METAR EHRD 220525Z AUTO VRB01KT 9999 NSC 11/11 Q1017 NOSIG
06:55
V
10 °C 10 km+ - 050°   050° 1 kt METAR EHRD 220455Z AUTO 05001KT 9999 NSC 10/10 Q1017 NOSIG
06:25
V
9 °C 9 km - 050°   050° 1 kt METAR EHRD 220425Z AUTO 05001KT 9000 NSC 09/09 Q1017 NOSIG
05:55
M
8 °C 5 km - Var   Var 1 kt METAR EHRD 220355Z AUTO VRB01KT 5000 NSC 08/08 Q1017 BECMG 9999 NSW
05:25
L
8 °C 650 m - Var   Var 2 kt METAR EHRD 220325Z AUTO VRB02KT 0650 R24/0450D FG NSC 08/08 Q1018 TEMPO 4000 MIFG
04:55
V
9 °C 8 km - 180°   180° 2 kt METAR EHRD 220255Z AUTO 18002KT 8000 NSC 09/09 Q1018 TEMPO 4000 MIFG
04:25
L
9 °C 500 m - 340°   340° 1 kt METAR EHRD 220225Z AUTO 34001KT 0500 R24/1500D FG NSC 09/09 Q1018 TEMPO 4000 MIFG
03:55
M
8 °C 7 km - 340°   340° 1 kt METAR EHRD 220155Z AUTO 34001KT 7000 NCD 08/08 Q1018 TEMPO 4000 MIFG
03:25
M
9 °C 5 km - 340°   340° 1 kt METAR EHRD 220125Z AUTO 34001KT 5000 NCD 09/09 Q1019 TEMPO 2000 MIFG
02:55
L
8 °C 900 m - 320°   320° 2 kt METAR EHRD 220055Z AUTO 32002KT 0900 R24/1400N FG FEW000 08/08 Q1019 TEMPO 4000 MIFG
02:25
V
9 °C 9 km - 350°   350° 2 kt METAR EHRD 220025Z AUTO 35002KT 9000 FEW015CB 09/09 Q1019 NOSIG
01:55
V
10 °C 10 km+ - 040°   040° 1 kt METAR EHRD 212355Z AUTO 04001KT 9999 NCD 10/09 Q1019 NOSIG
01:25
V
10 °C 10 km+ - 360°   360° 1 kt METAR EHRD 212325Z AUTO 36001KT 9999 NSC 10/10 Q1019 NOSIG
00:55
V
10 °C 10 km+ - Var   000° 0 kt METAR EHRD 212255Z AUTO /////KT 9999 NSC 10/09 Q1020 NOSIG
00:25
V
11 °C 10 km+ - 340°   340° 1 kt METAR EHRD 212225Z AUTO 34001KT 9999 NSC 11/10 Q1020 NOSIG

21 mai 2022

Temps Code Temps Temp. Vue Des nuages Vent METAR/SPECI
23:55
V
10 °C 10 km+ - 080°   080° 2 kt METAR EHRD 212155Z AUTO 08002KT 9999 NSC 10/09 Q1020 NOSIG
23:25
V
11 °C 10 km+ - 080°   080° 1 kt METAR EHRD 212125Z AUTO 08001KT 9999 NSC 11/09 Q1020 NOSIG
22:55
V
11 °C 10 km+ - Var   000° 0 kt METAR EHRD 212055Z AUTO 00000KT 9999 NCD 11/10 Q1020 NOSIG
22:25
V
12 °C 10 km+ - Var   Var 1 kt METAR EHRD 212025Z AUTO VRB01KT 9999 NSC 12/10 Q1020 NOSIG
21:55
V
13 °C 10 km+ - 310°   310° 3 kt METAR EHRD 211955Z AUTO 31003KT 280V350 9999 NSC 13/10 Q1020 NOSIG
21:25
V
14 °C 10 km+ - 280°   280° 3 kt METAR EHRD 211925Z AUTO 28003KT 9999 NSC 14/10 Q1020 NOSIG
20:55
V
15 °C 10 km+ - 270°   270° 4 kt METAR EHRD 211855Z AUTO 27004KT 240V300 9999 NSC 15/09 Q1020 NOSIG
20:25
V
16 °C 10 km+ - 280°   280° 5 kt METAR EHRD 211825Z AUTO 28005KT 240V310 9999 NSC 16/09 Q1020 NOSIG
19:55
V
17 °C 10 km+ - 290°   290° 5 kt METAR EHRD 211755Z AUTO 29005KT 240V340 9999 NSC 17/09 Q1020 NOSIG
19:25
V
17 °C 10 km+ - 300°   300° 6 kt METAR EHRD 211725Z AUTO 30006KT 260V360 9999 NSC 17/09 Q1020 NOSIG
18:55
V
17 °C 10 km+ - 300°   300° 6 kt METAR EHRD 211655Z AUTO 30006KT 260V350 9999 NSC 17/09 Q1020 NOSIG
18:25
V
17 °C 10 km+ - 250°   250° 7 kt METAR EHRD 211625Z AUTO 25007KT 220V310 9999 NSC 17/10 Q1021 NOSIG
17:55
V
17 °C 10 km+ - 260°   260° 8 kt METAR EHRD 211555Z AUTO 26008KT 220V310 9999 NSC 17/10 Q1021 NOSIG
17:25
V
17 °C 10 km+ - 270°   270° 10 kt METAR EHRD 211525Z AUTO 27010KT 230V300 9999 NSC 17/10 Q1021 NOSIG
16:55
V
17 °C 10 km+ - 280°   280° 8 kt METAR EHRD 211455Z AUTO 28008KT 230V320 9999 NSC 17/11 Q1021 NOSIG
16:25
V
17 °C 10 km+ - 270°   270° 9 kt METAR EHRD 211425Z AUTO 27009KT 220V320 9999 NSC 17/10 Q1021 NOSIG
15:55
V
17 °C 10 km+ - 260°   260° 10 kt METAR EHRD 211355Z AUTO 26010KT 220V320 9999 FEW024 17/11 Q1021 NOSIG
15:25
V
17 °C 10 km+ - 260°   260° 10 kt METAR EHRD 211325Z AUTO 26010KT 220V300 9999 FEW029 17/10 Q1022 NOSIG
14:55
V
17 °C 10 km+ - 260°   260° 10 kt METAR EHRD 211255Z AUTO 26010KT 220V320 9999 SCT027 17/10 Q1021 NOSIG
14:25
M
17 °C 10 km+ 2.500 ft 260°   260° 9 kt METAR EHRD 211225Z AUTO 26009KT 210V310 9999 BKN025 17/10 Q1021 NOSIG
13:55
M
16 °C 10 km+ 2.500 ft 250°   250° 10 kt METAR EHRD 211155Z AUTO 25010KT 210V290 9999 SCT020 BKN025 BKN028 16/10 Q1021 NOSIG
13:25
M
16 °C 10 km+ 1.900 ft 260°   260° 10 kt METAR EHRD 211125Z AUTO 26010KT 220V300 9999 BKN019 OVC023 16/11 Q1021 NOSIG
12:55
V
16 °C 10 km+ - 260°   260° 11 kt METAR EHRD 211055Z AUTO 26011KT 220V290 9999 NSC 16/10 Q1021 NOSIG
12:25
V
16 °C 10 km+ - 260°   260° 11 kt METAR EHRD 211025Z AUTO 26011KT 230V300 9999 FEW019 16/11 Q1021 NOSIG
11:55
M
16 °C 10 km+ 2.300 ft 250°   250° 9 kt METAR EHRD 210955Z AUTO 25009KT 210V300 9999 SCT018 BKN023 BKN028 16/11 Q1021 NOSIG
11:25
M
15 °C 10 km+ 1.900 ft 260°   260° 9 kt METAR EHRD 210925Z AUTO 26009KT 220V300 9999 BKN019 15/11 Q1021 NOSIG
10:55
M
15 °C 10 km+ 1.700 ft 260°   260° 9 kt METAR EHRD 210855Z AUTO 26009KT 210V300 9999 BKN017 BKN021 15/11 Q1021 NOSIG
10:25
M
15 °C 10 km+ 1.800 ft 270°   270° 9 kt METAR EHRD 210825Z AUTO 27009KT 230V310 9999 BKN018 BKN022 15/10 Q1021 NOSIG
09:55
M
15 °C 10 km+ 1.700 ft 260°   260° 11 kt METAR EHRD 210755Z AUTO 26011KT 230V320 9999 BKN017 15/10 Q1021 NOSIG
09:25
V
15 °C 10 km+ - 260°   260° 11 kt METAR EHRD 210725Z AUTO 26011KT 220V300 9999 SCT017 15/10 Q1020 NOSIG
08:55
V
14 °C 10 km+ - 270°   270° 10 kt METAR EHRD 210655Z AUTO 27010KT 230V320 9999 NSC 14/10 Q1020 NOSIG
08:25
V
14 °C 10 km+ - 270°   270° 11 kt METAR EHRD 210625Z AUTO 27011KT 240V320 9999 NCD 14/10 Q1020 NOSIG
07:55
V
14 °C 10 km+ - 270°   270° 10 kt METAR EHRD 210555Z AUTO 27010KT 240V310 9999 NSC 14/10 Q1019 NOSIG
07:25
V
13 °C 10 km+ - 260°   260° 11 kt METAR EHRD 210525Z AUTO 26011KT 230V300 9999 FEW041 13/10 Q1019 NOSIG
06:55
V
13 °C 10 km+ - 260°   260° 9 kt METAR EHRD 210455Z AUTO 26009KT 210V300 9999 NCD 13/09 Q1019 NOSIG
06:25
V
13 °C 10 km+ - 260°   260° 10 kt METAR EHRD 210425Z AUTO 26010KT 220V290 9999 NCD 13/09 Q1019 NOSIG
05:55
V
13 °C 10 km+ - 260°   260° 11 kt METAR EHRD 210355Z AUTO 26011KT 230V290 9999 NSC 13/09 Q1019 NOSIG
05:25
V
13 °C 10 km+ - 250°   250° 11 kt METAR EHRD 210325Z AUTO 25011KT 210V280 9999 FEW023 13/10 Q1019 NOSIG
04:55
V
13 °C 10 km+ - 250°   250° 13 kt METAR EHRD 210255Z AUTO 25013KT 220V280 9999 FEW021 13/10 Q1019 NOSIG
04:25
V
13 °C 10 km+ - 250°   250° 13 kt METAR EHRD 210225Z AUTO 25013KT 210V280 9999 FEW014 13/11 Q1018 NOSIG
03:55
M
13 °C 10 km+ 1.500 ft 240°   240° 13 kt METAR EHRD 210155Z AUTO 24013KT 210V280 9999 FEW012 OVC015 13/11 Q1018 NOSIG
03:25
M
13 °C 10 km+ 1.600 ft 240°   240° 14 kt METAR EHRD 210125Z AUTO 24014KT 210V280 9999 SCT014 BKN016 OVC020 13/11 Q1018 NOSIG
02:55
M
14 °C 10 km+ 1.500 ft 240°   240° 14 kt METAR EHRD 210055Z AUTO 24014KT 200V270 9999 FEW013 BKN015 14/11 Q1018 NOSIG
02:25
M
13 °C 10 km+ 1.700 ft 230°   230° 14 25 kt METAR EHRD 210025Z AUTO 23014G25KT 9999 SCT014/// OVC017/// 13/11 Q1018 NOSIG
01:55
M
13 °C 10 km+ 1.600 ft 240°   240° 15 kt METAR EHRD 202355Z AUTO 24015KT 210V280 9999 FEW014 OVC016 13/11 Q1018 NOSIG
01:25
M
13 °C 10 km+ 1.600 ft 240°   240° 13 kt METAR EHRD 202325Z AUTO 24013KT 210V270 9999 SCT014 OVC016 13/11 Q1018 NOSIG
00:55
M
13 °C 10 km+ 1.500 ft 220°   220° 13 kt METAR EHRD 202255Z AUTO 22013KT 180V270 9999 SCT013 BKN015 13/11 Q1018 NOSIG
00:25
M
13 °C 10 km+ 1.600 ft 230°   230° 11 kt METAR EHRD 202225Z AUTO 23011KT 200V270 9999 SCT014 BKN016 13/11 Q1018 NOSIG

20 mai 2022

Temps Code Temps Temp. Vue Des nuages Vent METAR/SPECI
23:55
V
13 °C 10 km+ - 240°   240° 10 kt METAR EHRD 202155Z AUTO 24010KT 200V260 9999 SCT013 SCT016 13/11 Q1018 NOSIG
23:25
V
12 °C 10 km+ - 240°   240° 10 kt METAR EHRD 202125Z AUTO 24010KT 200V260 9999 FEW012 12/11 Q1018 NOSIG
22:55
V
12 °C 10 km+ - 240°   240° 10 kt METAR EHRD 202055Z AUTO 24010KT 210V270 9999 NSC 12/10 Q1018 NOSIG
22:25
V
12 °C 10 km+ - 240°   240° 9 kt METAR EHRD 202025Z AUTO 24009KT 210V280 9999 FEW012 12/10 Q1018 NOSIG
21:55
V
12 °C 10 km+ - 250°   250° 10 kt METAR EHRD 201955Z AUTO 25010KT 220V280 9999 NCD 12/10 Q1018 NOSIG
21:25
V
12 °C 10 km+ - 260°   260° 8 kt METAR EHRD 201925Z AUTO 26008KT 230V290 9999 NCD 12/10 Q1017 NOSIG
20:55
V
12 °C 10 km+ - 260°   260° 10 kt METAR EHRD 201855Z AUTO 26010KT 230V300 9999 FEW016 12/10 Q1017 NOSIG
20:25
M
13 °C 10 km+ 1.600 ft 260°   260° 12 kt METAR EHRD 201825Z AUTO 26012KT 220V290 9999 SCT014 BKN016 OVC021 13/10 Q1017 BECMG FEW013
19:55
M
13 °C 10 km+ 1.100 ft 270°   270° 12 kt METAR EHRD 201755Z AUTO 27012KT 230V320 9999 BKN011 BKN016 BKN025 13/11 Q1017 BECMG FEW011 BKN030
19:25
V
12 °C 10 km+ 4.000 ft 260°   260° 6 kt METAR EHRD 201725Z AUTO 26006KT 230V300 9999 FEW034 OVC040 12/10 Q1016 NOSIG
18:55
M
12 °C 10 km+ 2.400 ft 280°   280° 10 kt METAR EHRD 201655Z AUTO 28010KT 230V320 9999 -RA FEW014 BKN024 OVC027 12/10 Q1016 NOSIG
18:25
M
12 °C 10 km+ 1.700 ft 280°   280° 9 kt METAR EHRD 201625Z AUTO 28009KT 230V330 9999 BKN017 OVC021 12/11 Q1016 BECMG FEW012 BKN025
17:55
I
12 °C 10 km+ 800 ft 280°   280° 13 kt METAR EHRD 201555Z AUTO 28013KT 240V320 9999 SCT006 BKN008 OVC009 12/11 Q1015 TEMPO FEW006 BKN018
17:25
I
13 °C 10 km+ 600 ft 300°   300° 11 kt METAR EHRD 201525Z AUTO 30011KT 260V340 9999 SCT005 BKN006 OVC008 13/12 Q1014 REDZ TEMPO FEW006 BKN018
16:55
V
13 °C 10 km+ 4.300 ft 310°   310° 7 kt METAR EHRD 201455Z AUTO 31007KT 250V010 9999 -RA FEW010 FEW015CB SCT038 BKN043 13/12 Q1014 REDZRA NOSIG
16:25
M
13 °C 10 km+ 1.500 ft 300°   300° 12 kt METAR EHRD 201425Z AUTO 30012KT 250V010 9999 -RA FEW007 SCT008 BKN015CB 13/12 Q1014 RERA TEMPO BKN008
15:55
I
13 °C 6 km 900 ft 320°   320° 10 kt METAR EHRD 201355Z AUTO 32010KT 6000 RA FEW005 SCT008 BKN009 FEW015CB 13/12 Q1014 BECMG 9999 NSW FEW009 BKN030
15:25
M
15 °C 6 km 1.300 ft 310°   310° 8 kt METAR EHRD 201325Z AUTO 31008KT 270V010 6000 -RA FEW008 BKN013 FEW015CB 15/14 Q1014 RERADZRA TEMPO 8000
14:55
M
15 °C 8 km 2.900 ft 040°   040° 7 kt METAR EHRD 201255Z AUTO 04007KT 8000 -RA FEW002 FEW015CB BKN029 OVC033 15/14 Q1013 RERA TEMPO 4500 RA
14:25
M
15 °C 5 km 1.500 ft 300°   300° 4 kt METAR EHRD 201225Z AUTO 30004KT 230V030 5000 RA SCT000 SCT005 BKN015CB 15/14 Q1014 RETS BECMG 7000 -RA
13:55
M
17 °C 10 km+ 1.500 ft 030°   030° 6 kt METAR EHRD 201155Z AUTO 03006KT 350V060 9999 -TSRA BKN015CB 17/13 Q1013 RERA TEMPO 6000 SHRA
13:25
V
18 °C 10 km+ - 080°   080° 8 kt METAR EHRD 201125Z AUTO 08008KT 050V130 9999 FEW030CB 18/11 Q1014 TEMPO 6000 SHRA
12:55
V
18 °C 10 km+ - 100°   100° 10 kt METAR EHRD 201055Z AUTO 10010KT 060V140 9999 NSC 18/10 Q1015 BECMG 7000 -RA BKN040
12:25
V
19 °C 10 km+ - 090°   090° 10 kt METAR EHRD 201025Z AUTO 09010KT 050V140 9999 NSC 19/12 Q1016 BECMG 7000 -RA BKN040
11:55
V
18 °C 10 km+ - 110°   110° 7 kt METAR EHRD 200955Z AUTO 11007KT 080V140 9999 NSC 18/11 Q1017 NOSIG
11:25
V
18 °C 10 km+ - 120°   120° 7 kt METAR EHRD 200925Z AUTO 12007KT 090V160 9999 NSC 18/11 Q1018 NOSIG
10:55
V
18 °C 10 km+ - 110°   110° 9 kt METAR EHRD 200855Z AUTO 11009KT 080V140 9999 NSC 18/11 Q1018 NOSIG
10:25
V
18 °C 10 km+ - 130°   130° 9 kt METAR EHRD 200825Z AUTO 13009KT 100V170 9999 NSC 18/12 Q1019 NOSIG
09:55
V
17 °C 10 km+ - 100°   100° 7 kt METAR EHRD 200755Z AUTO 10007KT 060V140 9999 NSC 17/12 Q1019 NOSIG
09:25
V
17 °C 10 km+ - 130°   130° 6 kt METAR EHRD 200725Z AUTO 13006KT 070V160 9999 NSC 17/12 Q1020 NOSIG
08:55
V
16 °C 10 km+ - 130°   130° 6 kt METAR EHRD 200655Z AUTO 13006KT 090V160 9999 NSC 16/12 Q1020 NOSIG
08:25
V
15 °C 10 km+ - 120°   120° 6 kt METAR EHRD 200625Z AUTO 12006KT 090V150 9999 NSC 15/12 Q1020 NOSIG
07:55
M
14 °C 6 km - 140°   140° 4 kt METAR EHRD 200555Z AUTO 14004KT 080V170 6000 NSC 14/12 Q1020 BECMG CAVOK
07:25
M
14 °C 6 km - 150°   150° 6 kt METAR EHRD 200525Z AUTO 15006KT 080V220 6000 NSC 14/13 Q1020 BECMG CAVOK
06:55
M
13 °C 6 km - 150°   150° 4 kt METAR EHRD 200455Z AUTO 15004KT 120V180 6000 NSC 13/12 Q1020 BECMG CAVOK
Données plus anciennes

Télécharge notre application

Un accès facile à toute la météo aéronautique sur ton téléphone portable et ta tablette.
Avec de nombreuses fonctionnalités non disponibles sur le site Web, comme la prise en charge hors ligne et une liste personnelle d'aéroports.

Nous et des tiers suivons ton comportement sur Internet sur notre site Web à l'aide de cookies. Si tu continues, nous supposons que tu acceptes notre politique en matière de cookies. Apprendre plus